sensor_id;sensor_type;location;lat;lon;timestamp;pressure;altitude;pressure_sealevel;temperature;humidity
22333;BME280;11334;36.986;-121.936;2023-04-01T00:01:01;101940.63;;;24.10;34.03
22333;BME280;11334;36.986;-121.936;2023-04-01T00:03:29;101947.88;;;24.16;34.54
22333;BME280;11334;36.986;-121.936;2023-04-01T00:05:56;101949.66;;;23.91;34.52
22333;BME280;11334;36.986;-121.936;2023-04-01T00:08:23;101949.72;;;23.72;34.21
22333;BME280;11334;36.986;-121.936;2023-04-01T00:10:49;101954.13;;;23.54;34.79
22333;BME280;11334;36.986;-121.936;2023-04-01T00:13:16;101957.03;;;23.27;35.23
22333;BME280;11334;36.986;-121.936;2023-04-01T00:15:43;101956.78;;;23.67;35.23
22333;BME280;11334;36.986;-121.936;2023-04-01T00:18:10;101939.88;;;24.40;34.94
22333;BME280;11334;36.986;-121.936;2023-04-01T00:20:36;101943.69;;;25.24;32.65
22333;BME280;11334;36.986;-121.936;2023-04-01T00:23:03;101944.84;;;26.12;32.04
22333;BME280;11334;36.986;-121.936;2023-04-01T00:25:30;101925.63;;;26.71;31.19
22333;BME280;11334;36.986;-121.936;2023-04-01T00:27:57;101935.03;;;27.61;29.81
22333;BME280;11334;36.986;-121.936;2023-04-01T00:30:23;101934.69;;;28.58;28.84
22333;BME280;11334;36.986;-121.936;2023-04-01T00:32:53;101937.91;;;29.64;27.89
22333;BME280;11334;36.986;-121.936;2023-04-01T00:35:20;101927.81;;;30.49;26.02
22333;BME280;11334;36.986;-121.936;2023-04-01T00:37:46;101925.00;;;31.22;26.22
22333;BME280;11334;36.986;-121.936;2023-04-01T00:40:39;101930.97;;;31.86;24.89
22333;BME280;11334;36.986;-121.936;2023-04-01T00:43:32;101927.94;;;32.53;24.67
22333;BME280;11334;36.986;-121.936;2023-04-01T00:45:58;101920.63;;;32.98;24.31
22333;BME280;11334;36.986;-121.936;2023-04-01T00:48:29;101915.13;;;33.03;23.30
22333;BME280;11334;36.986;-121.936;2023-04-01T00:51:05;101920.50;;;32.49;23.70
22333;BME280;11334;36.986;-121.936;2023-04-01T00:53:33;101921.31;;;32.35;24.27
22333;BME280;11334;36.986;-121.936;2023-04-01T00:56:04;101918.28;;;32.31;24.10
22333;BME280;11334;36.986;-121.936;2023-04-01T00:58:35;101923.81;;;32.51;24.56
22333;BME280;11334;36.986;-121.936;2023-04-01T01:01:04;101926.94;;;32.89;24.79
22333;BME280;11334;36.986;-121.936;2023-04-01T01:03:31;101902.19;;;33.23;24.13
22333;BME280;11334;36.986;-121.936;2023-04-01T01:09:11;101918.25;;;34.08;22.69
22333;BME280;11334;36.986;-121.936;2023-04-01T01:16:46;101907.56;;;34.55;21.88
22333;BME280;11334;36.986;-121.936;2023-04-01T01:25:44;101899.31;;;31.74;23.57
22333;BME280;11334;36.986;-121.936;2023-04-01T01:28:44;101898.56;;;30.50;25.10
22333;BME280;11334;36.986;-121.936;2023-04-01T01:34:34;101900.63;;;27.83;28.06
22333;BME280;11334;36.986;-121.936;2023-04-01T01:37:10;101905.50;;;26.72;28.44
22333;BME280;11334;36.986;-121.936;2023-04-01T01:39:37;101906.59;;;25.78;28.55
22333;BME280;11334;36.986;-121.936;2023-04-01T01:42:09;101903.69;;;25.13;30.01
22333;BME280;11334;36.986;-121.936;2023-04-01T01:44:38;101886.41;;;24.23;31.12
22333;BME280;11334;36.986;-121.936;2023-04-01T01:47:06;101906.78;;;23.76;31.74
22333;BME280;11334;36.986;-121.936;2023-04-01T01:49:34;101901.28;;;23.13;33.33
22333;BME280;11334;36.986;-121.936;2023-04-01T01:52:01;101904.13;;;22.73;34.72
22333;BME280;11334;36.986;-121.936;2023-04-01T01:54:27;101903.91;;;21.96;36.31
22333;BME280;11334;36.986;-121.936;2023-04-01T01:57:04;101909.91;;;21.52;37.63
22333;BME280;11334;36.986;-121.936;2023-04-01T01:59:34;101911.69;;;21.12;38.11
22333;BME280;11334;36.986;-121.936;2023-04-01T02:02:02;101913.22;;;20.73;38.68
22333;BME280;11334;36.986;-121.936;2023-04-01T02:04:35;101891.44;;;20.33;40.61
22333;BME280;11334;36.986;-121.936;2023-04-01T02:07:08;101912.41;;;20.02;42.14
22333;BME280;11334;36.986;-121.936;2023-04-01T02:09:37;101917.19;;;19.72;42.83
22333;BME280;11334;36.986;-121.936;2023-04-01T02:12:06;101914.84;;;19.40;43.79
22333;BME280;11334;36.986;-121.936;2023-04-01T02:17:20;101924.34;;;18.78;46.52
22333;BME280;11334;36.986;-121.936;2023-04-01T02:19:53;101920.88;;;18.69;47.55
22333;BME280;11334;36.986;-121.936;2023-04-01T02:22:26;101911.16;;;18.46;48.70
22333;BME280;11334;36.986;-121.936;2023-04-01T02:24:57;101915.03;;;18.44;48.33
22333;BME280;11334;36.986;-121.936;2023-04-01T02:27:24;101913.03;;;18.16;49.25
22333;BME280;11334;36.986;-121.936;2023-04-01T02:29:51;101921.78;;;17.72;51.78
22333;BME280;11334;36.986;-121.936;2023-04-01T02:32:19;101925.47;;;17.71;51.89
22333;BME280;11334;36.986;-121.936;2023-04-01T02:34:47;101920.81;;;17.65;51.72
22333;BME280;11334;36.986;-121.936;2023-04-01T02:37:14;101919.88;;;17.42;52.29
22333;BME280;11334;36.986;-121.936;2023-04-01T02:39:41;101930.31;;;17.30;52.52
22333;BME280;11334;36.986;-121.936;2023-04-01T02:42:08;101923.59;;;17.10;55.49
22333;BME280;11334;36.986;-121.936;2023-04-01T02:44:35;101927.47;;;16.76;56.46
22333;BME280;11334;36.986;-121.936;2023-04-01T02:47:01;101927.63;;;16.75;56.55
22333;BME280;11334;36.986;-121.936;2023-04-01T02:49:27;101923.94;;;16.60;56.55
22333;BME280;11334;36.986;-121.936;2023-04-01T02:51:54;101931.63;;;16.55;57.14
22333;BME280;11334;36.986;-121.936;2023-04-01T02:54:20;101927.09;;;16.32;57.71
22333;BME280;11334;36.986;-121.936;2023-04-01T02:56:46;101906.84;;;16.13;57.99
22333;BME280;11334;36.986;-121.936;2023-04-01T02:59:12;101929.41;;;16.19;57.78
22333;BME280;11334;36.986;-121.936;2023-04-01T03:01:39;101925.31;;;15.99;57.88
22333;BME280;11334;36.986;-121.936;2023-04-01T03:04:05;101933.00;;;16.02;58.04
22333;BME280;11334;36.986;-121.936;2023-04-01T03:06:32;101923.94;;;15.87;59.02
22333;BME280;11334;36.986;-121.936;2023-04-01T03:08:58;101940.75;;;15.72;60.02
22333;BME280;11334;36.986;-121.936;2023-04-01T03:11:24;101935.97;;;15.58;60.60
22333;BME280;11334;36.986;-121.936;2023-04-01T03:13:51;101934.78;;;15.53;60.87
22333;BME280;11334;36.986;-121.936;2023-04-01T03:16:18;101942.91;;;15.44;60.59
22333;BME280;11334;36.986;-121.936;2023-04-01T03:18:44;101946.69;;;15.33;61.14
22333;BME280;11334;36.986;-121.936;2023-04-01T03:21:21;101937.09;;;15.15;62.09
22333;BME280;11334;36.986;-121.936;2023-04-01T03:23:47;101942.34;;;15.07;62.47
22333;BME280;11334;36.986;-121.936;2023-04-01T03:26:14;101950.94;;;15.01;62.57
22333;BME280;11334;36.986;-121.936;2023-04-01T03:28:41;101958.75;;;15.12;61.87
22333;BME280;11334;36.986;-121.936;2023-04-01T03:31:07;101949.09;;;15.02;63.25
22333;BME280;11334;36.986;-121.936;2023-04-01T03:33:34;101956.16;;;14.85;65.18
22333;BME280;11334;36.986;-121.936;2023-04-01T03:36:00;101958.78;;;14.78;65.17
22333;BME280;11334;36.986;-121.936;2023-04-01T03:38:27;101962.72;;;14.74;64.92
22333;BME280;11334;36.986;-121.936;2023-04-01T03:40:53;101956.25;;;14.59;65.88
22333;BME280;11334;36.986;-121.936;2023-04-01T03:43:19;101958.69;;;14.52;65.06
22333;BME280;11334;36.986;-121.936;2023-04-01T03:45:47;101961.91;;;14.39;66.63
22333;BME280;11334;36.986;-121.936;2023-04-01T03:48:14;101969.34;;;14.35;66.93
22333;BME280;11334;36.986;-121.936;2023-04-01T03:50:41;101961.88;;;14.22;66.99
22333;BME280;11334;36.986;-121.936;2023-04-01T03:53:08;101978.69;;;14.22;67.08
22333;BME280;11334;36.986;-121.936;2023-04-01T03:55:35;101980.28;;;14.15;67.72
22333;BME280;11334;36.986;-121.936;2023-04-01T03:58:03;101983.78;;;14.16;67.33
22333;BME280;11334;36.986;-121.936;2023-04-01T04:00:30;101968.03;;;13.95;68.21
22333;BME280;11334;36.986;-121.936;2023-04-01T04:02:57;101969.16;;;14.02;68.29
22333;BME280;11334;36.986;-121.936;2023-04-01T04:05:24;101980.50;;;14.04;68.88
22333;BME280;11334;36.986;-121.936;2023-04-01T04:07:51;101992.59;;;13.99;68.73
22333;BME280;11334;36.986;-121.936;2023-04-01T04:10:19;101981.50;;;13.94;68.83
22333;BME280;11334;36.986;-121.936;2023-04-01T04:12:45;101988.44;;;13.78;70.81
22333;BME280;11334;36.986;-121.936;2023-04-01T04:15:13;101993.34;;;13.82;70.29
22333;BME280;11334;36.986;-121.936;2023-04-01T04:17:39;102003.06;;;13.74;70.53
22333;BME280;11334;36.986;-121.936;2023-04-01T04:20:06;102003.06;;;13.74;70.48
22333;BME280;11334;36.986;-121.936;2023-04-01T04:22:32;102010.09;;;13.65;70.76
22333;BME280;11334;36.986;-121.936;2023-04-01T04:24:58;102010.91;;;13.66;70.51
22333;BME280;11334;36.986;-121.936;2023-04-01T04:27:25;102014.16;;;13.69;69.05
22333;BME280;11334;36.986;-121.936;2023-04-01T04:29:54;102018.50;;;13.61;69.34
22333;BME280;11334;36.986;-121.936;2023-04-01T04:32:20;102017.25;;;13.56;69.68
22333;BME280;11334;36.986;-121.936;2023-04-01T04:34:46;102022.06;;;13.43;69.90
22333;BME280;11334;36.986;-121.936;2023-04-01T04:37:16;102022.50;;;13.29;70.22
22333;BME280;11334;36.986;-121.936;2023-04-01T04:39:42;102023.63;;;13.26;70.62
22333;BME280;11334;36.986;-121.936;2023-04-01T04:42:09;102036.81;;;13.28;71.06
22333;BME280;11334;36.986;-121.936;2023-04-01T04:44:35;102031.50;;;13.19;71.89
22333;BME280;11334;36.986;-121.936;2023-04-01T04:47:01;102029.13;;;13.16;72.64
22333;BME280;11334;36.986;-121.936;2023-04-01T04:49:27;102022.81;;;13.17;73.31
22333;BME280;11334;36.986;-121.936;2023-04-01T04:51:54;102023.50;;;13.09;73.50
22333;BME280;11334;36.986;-121.936;2023-04-01T04:54:20;102025.91;;;13.12;72.93
22333;BME280;11334;36.986;-121.936;2023-04-01T04:56:46;102023.13;;;12.95;74.18
22333;BME280;11334;36.986;-121.936;2023-04-01T04:59:13;102032.06;;;12.94;74.81
22333;BME280;11334;36.986;-121.936;2023-04-01T05:01:39;102028.16;;;12.89;75.24
22333;BME280;11334;36.986;-121.936;2023-04-01T05:04:05;102035.44;;;12.87;74.66
22333;BME280;11334;36.986;-121.936;2023-04-01T05:06:31;102033.47;;;12.79;75.45
22333;BME280;11334;36.986;-121.936;2023-04-01T05:08:58;102037.34;;;12.66;76.33
22333;BME280;11334;36.986;-121.936;2023-04-01T05:11:24;102034.53;;;12.67;75.63
22333;BME280;11334;36.986;-121.936;2023-04-01T05:13:54;102038.47;;;12.73;75.54
22333;BME280;11334;36.986;-121.936;2023-04-01T05:16:21;102013.38;;;12.47;76.26
22333;BME280;11334;36.986;-121.936;2023-04-01T05:18:47;102037.75;;;12.52;76.54
22333;BME280;11334;36.986;-121.936;2023-04-01T05:21:14;102036.78;;;12.53;76.18
22333;BME280;11334;36.986;-121.936;2023-04-01T05:23:41;102039.28;;;12.45;76.59
22333;BME280;11334;36.986;-121.936;2023-04-01T05:26:11;102038.59;;;12.43;77.21
22333;BME280;11334;36.986;-121.936;2023-04-01T05:28:37;102021.38;;;12.38;76.85
22333;BME280;11334;36.986;-121.936;2023-04-01T05:31:05;102031.84;;;12.39;77.39
22333;BME280;11334;36.986;-121.936;2023-04-01T05:33:31;102016.13;;;12.18;78.14
22333;BME280;11334;36.986;-121.936;2023-04-01T05:36:09;102024.72;;;12.31;77.42
22333;BME280;11334;36.986;-121.936;2023-04-01T05:38:36;102027.78;;;12.26;76.75
22333;BME280;11334;36.986;-121.936;2023-04-01T05:41:03;102031.53;;;12.24;77.56
22333;BME280;11334;36.986;-121.936;2023-04-01T05:43:29;102033.88;;;12.17;77.31
22333;BME280;11334;36.986;-121.936;2023-04-01T05:45:56;102042.53;;;12.10;78.36
22333;BME280;11334;36.986;-121.936;2023-04-01T05:48:23;102044.91;;;12.13;78.25
22333;BME280;11334;36.986;-121.936;2023-04-01T05:50:49;102038.22;;;12.09;78.41
22333;BME280;11334;36.986;-121.936;2023-04-01T05:53:15;102043.09;;;12.04;78.21
22333;BME280;11334;36.986;-121.936;2023-04-01T05:55:41;102037.84;;;11.93;77.71
22333;BME280;11334;36.986;-121.936;2023-04-01T05:58:08;102036.47;;;11.89;78.51
22333;BME280;11334;36.986;-121.936;2023-04-01T06:00:34;102038.41;;;11.87;79.05
22333;BME280;11334;36.986;-121.936;2023-04-01T06:03:00;102044.94;;;11.83;79.42
22333;BME280;11334;36.986;-121.936;2023-04-01T06:05:35;102035.41;;;11.81;78.15
22333;BME280;11334;36.986;-121.936;2023-04-01T06:08:15;102038.75;;;11.73;78.79
22333;BME280;11334;36.986;-121.936;2023-04-01T06:13:43;102045.53;;;11.57;79.94
22333;BME280;11334;36.986;-121.936;2023-04-01T06:19:20;102027.59;;;11.50;80.25
22333;BME280;11334;36.986;-121.936;2023-04-01T06:22:13;102039.09;;;11.39;80.88
22333;BME280;11334;36.986;-121.936;2023-04-01T06:25:02;102043.81;;;11.36;81.00
22333;BME280;11334;36.986;-121.936;2023-04-01T06:35:58;102039.22;;;11.18;81.77
22333;BME280;11334;36.986;-121.936;2023-04-01T06:38:39;102036.69;;;11.16;81.19
22333;BME280;11334;36.986;-121.936;2023-04-01T06:41:21;102023.75;;;11.03;81.72
22333;BME280;11334;36.986;-121.936;2023-04-01T06:44:08;102031.97;;;11.00;81.93
22333;BME280;11334;36.986;-121.936;2023-04-01T06:46:52;102010.22;;;10.85;83.27
22333;BME280;11334;36.986;-121.936;2023-04-01T06:49:33;102016.75;;;10.81;82.82
22333;BME280;11334;36.986;-121.936;2023-04-01T06:54:48;102009.88;;;10.79;83.27
22333;BME280;11334;36.986;-121.936;2023-04-01T06:59:48;101999.53;;;10.76;82.88
22333;BME280;11334;36.986;-121.936;2023-04-01T07:02:32;102007.84;;;10.82;82.53
22333;BME280;11334;36.986;-121.936;2023-04-01T07:05:01;102003.75;;;10.78;81.69
22333;BME280;11334;36.986;-121.936;2023-04-01T07:07:45;102018.09;;;10.76;82.30
22333;BME280;11334;36.986;-121.936;2023-04-01T07:13:31;102004.34;;;10.51;83.89
22333;BME280;11334;36.986;-121.936;2023-04-01T07:16:14;102023.94;;;10.59;83.65
22333;BME280;11334;36.986;-121.936;2023-04-01T07:18:58;102018.78;;;10.58;83.54
22333;BME280;11334;36.986;-121.936;2023-04-01T07:21:32;102030.22;;;10.58;82.97
22333;BME280;11334;36.986;-121.936;2023-04-01T07:24:05;102043.63;;;10.46;83.77
22333;BME280;11334;36.986;-121.936;2023-04-01T07:26:35;102027.53;;;10.38;84.46
22333;BME280;11334;36.986;-121.936;2023-04-01T07:29:01;102039.16;;;10.46;83.85
22333;BME280;11334;36.986;-121.936;2023-04-01T07:34:26;102047.63;;;10.41;84.24
22333;BME280;11334;36.986;-121.936;2023-04-01T07:53:30;102028.41;;;10.17;84.05
22333;BME280;11334;36.986;-121.936;2023-04-01T07:56:27;102014.47;;;10.04;84.40
22333;BME280;11334;36.986;-121.936;2023-04-01T07:59:17;102033.09;;;10.03;85.43
22333;BME280;11334;36.986;-121.936;2023-04-01T08:02:08;102031.53;;;10.11;83.81
22333;BME280;11334;36.986;-121.936;2023-04-01T08:04:51;102018.09;;;10.03;85.13
22333;BME280;11334;36.986;-121.936;2023-04-01T08:07:43;102022.03;;;9.98;85.33
22333;BME280;11334;36.986;-121.936;2023-04-01T08:19:00;102030.31;;;9.82;85.78
22333;BME280;11334;36.986;-121.936;2023-04-01T08:21:41;102028.91;;;9.78;85.85
22333;BME280;11334;36.986;-121.936;2023-04-01T08:24:39;102029.38;;;9.83;85.17
22333;BME280;11334;36.986;-121.936;2023-04-01T08:27:15;102023.72;;;9.77;85.55
22333;BME280;11334;36.986;-121.936;2023-04-01T08:29:48;102019.84;;;9.70;85.60
22333;BME280;11334;36.986;-121.936;2023-04-01T08:32:28;101996.03;;;9.48;85.99
22333;BME280;11334;36.986;-121.936;2023-04-01T08:35:08;102012.16;;;9.67;85.01
22333;BME280;11334;36.986;-121.936;2023-04-01T08:37:38;102006.00;;;9.56;84.96
22333;BME280;11334;36.986;-121.936;2023-04-01T08:40:35;102010.69;;;9.63;85.05
22333;BME280;11334;36.986;-121.936;2023-04-01T08:43:41;101997.97;;;9.46;85.05
22333;BME280;11334;36.986;-121.936;2023-04-01T08:51:58;102013.13;;;9.66;83.40
22333;BME280;11334;36.986;-121.936;2023-04-01T09:06:35;102002.06;;;9.40;85.37
22333;BME280;11334;36.986;-121.936;2023-04-01T09:22:22;101991.09;;;9.22;84.94
22333;BME280;11334;36.986;-121.936;2023-04-01T09:38:28;101992.03;;;9.11;84.86
22333;BME280;11334;36.986;-121.936;2023-04-01T09:41:54;101996.09;;;9.04;84.45
22333;BME280;11334;36.986;-121.936;2023-04-01T09:44:18;101998.72;;;9.04;84.62
22333;BME280;11334;36.986;-121.936;2023-04-01T09:47:20;101998.50;;;9.07;84.75
22333;BME280;11334;36.986;-121.936;2023-04-01T09:53:27;101993.19;;;8.96;86.19
22333;BME280;11334;36.986;-121.936;2023-04-01T10:32:19;101987.41;;;8.57;87.34
22333;BME280;11334;36.986;-121.936;2023-04-01T10:49:41;101971.47;;;8.35;87.60
22333;BME280;11334;36.986;-121.936;2023-04-01T10:52:12;101979.03;;;8.40;87.09
22333;BME280;11334;36.986;-121.936;2023-04-01T10:57:58;101974.50;;;8.42;86.66
22333;BME280;11334;36.986;-121.936;2023-04-01T11:07:01;101955.41;;;8.38;86.93
22333;BME280;11334;36.986;-121.936;2023-04-01T11:18:24;101952.88;;;8.37;86.43
22333;BME280;11334;36.986;-121.936;2023-04-01T11:21:49;101952.84;;;8.26;87.61
22333;BME280;11334;36.986;-121.936;2023-04-01T11:30:10;101953.72;;;8.14;88.76
22333;BME280;11334;36.986;-121.936;2023-04-01T11:41:32;101960.91;;;8.12;87.28
22333;BME280;11334;36.986;-121.936;2023-04-01T11:44:19;101954.78;;;8.12;87.44
22333;BME280;11334;36.986;-121.936;2023-04-01T11:57:43;101949.75;;;7.96;88.38
22333;BME280;11334;36.986;-121.936;2023-04-01T12:03:17;101947.63;;;8.01;87.96
22333;BME280;11334;36.986;-121.936;2023-04-01T12:20:20;101950.78;;;8.06;87.98
22333;BME280;11334;36.986;-121.936;2023-04-01T12:23:04;101951.88;;;7.91;88.82
22333;BME280;11334;36.986;-121.936;2023-04-01T12:26:00;101956.53;;;7.88;88.74
22333;BME280;11334;36.986;-121.936;2023-04-01T12:31:52;101959.28;;;7.87;89.75
22333;BME280;11334;36.986;-121.936;2023-04-01T12:48:26;101955.94;;;7.72;92.39
22333;BME280;11334;36.986;-121.936;2023-04-01T12:51:26;101948.03;;;7.72;92.50
22333;BME280;11334;36.986;-121.936;2023-04-01T13:00:18;101941.50;;;7.65;92.93
22333;BME280;11334;36.986;-121.936;2023-04-01T13:11:24;101954.72;;;7.53;93.17
22333;BME280;11334;36.986;-121.936;2023-04-01T13:14:13;101952.22;;;7.52;92.88
22333;BME280;11334;36.986;-121.936;2023-04-01T13:19:31;101952.59;;;7.58;93.51
22333;BME280;11334;36.986;-121.936;2023-04-01T13:22:09;101954.84;;;7.52;93.28
22333;BME280;11334;36.986;-121.936;2023-04-01T13:24:59;101946.81;;;7.53;93.24
22333;BME280;11334;36.986;-121.936;2023-04-01T13:27:44;101955.91;;;7.37;93.15
22333;BME280;11334;36.986;-121.936;2023-04-01T13:43:47;101967.63;;;7.33;93.70
22333;BME280;11334;36.986;-121.936;2023-04-01T14:01:40;101981.53;;;7.23;94.33
22333;BME280;11334;36.986;-121.936;2023-04-01T14:04:34;101996.72;;;7.31;94.46
22333;BME280;11334;36.986;-121.936;2023-04-01T14:14:55;101990.72;;;7.17;96.45
22333;BME280;11334;36.986;-121.936;2023-04-01T14:29:22;102007.44;;;7.28;97.16
22333;BME280;11334;36.986;-121.936;2023-04-01T14:40:28;102019.41;;;7.34;98.21
22333;BME280;11334;36.986;-121.936;2023-04-01T14:48:38;102018.00;;;7.53;98.62
22333;BME280;11334;36.986;-121.936;2023-04-01T14:56:42;102031.88;;;7.80;99.54
22333;BME280;11334;36.986;-121.936;2023-04-01T14:59:27;102005.00;;;7.75;99.84
22333;BME280;11334;36.986;-121.936;2023-04-01T15:02:03;102003.72;;;7.80;100.00
22333;BME280;11334;36.986;-121.936;2023-04-01T15:11:06;102030.44;;;8.23;100.00
22333;BME280;11334;36.986;-121.936;2023-04-01T15:14:03;102033.03;;;8.36;100.00
22333;BME280;11334;36.986;-121.936;2023-04-01T15:33:22;102030.91;;;9.32;98.96
22333;BME280;11334;36.986;-121.936;2023-04-01T15:36:16;102037.66;;;9.46;98.54
22333;BME280;11334;36.986;-121.936;2023-04-01T15:38:51;102054.00;;;9.51;98.24
22333;BME280;11334;36.986;-121.936;2023-04-01T15:43:51;102052.47;;;9.81;96.45
22333;BME280;11334;36.986;-121.936;2023-04-01T15:51:53;102042.25;;;10.09;93.88
22333;BME280;11334;36.986;-121.936;2023-04-01T15:57:40;102058.09;;;10.31;92.36
22333;BME280;11334;36.986;-121.936;2023-04-01T16:00:28;102054.00;;;10.38;91.61
22333;BME280;11334;36.986;-121.936;2023-04-01T16:11:28;102054.22;;;10.77;90.51
22333;BME280;11334;36.986;-121.936;2023-04-01T16:21:52;102050.28;;;11.23;89.19
22333;BME280;11334;36.986;-121.936;2023-04-01T16:24:33;102062.66;;;11.33;89.14
22333;BME280;11334;36.986;-121.936;2023-04-01T16:32:50;102055.22;;;11.68;87.32
22333;BME280;11334;36.986;-121.936;2023-04-01T16:38:13;102066.50;;;11.90;87.04
22333;BME280;11334;36.986;-121.936;2023-04-01T16:43:21;102071.25;;;12.16;87.11
22333;BME280;11334;36.986;-121.936;2023-04-01T16:54:39;102074.88;;;12.63;85.59
22333;BME280;11334;36.986;-121.936;2023-04-01T16:59:55;102069.47;;;12.83;84.56
22333;BME280;11334;36.986;-121.936;2023-04-01T17:11:42;102058.69;;;13.22;82.10
22333;BME280;11334;36.986;-121.936;2023-04-01T17:17:00;102063.66;;;13.44;80.60
22333;BME280;11334;36.986;-121.936;2023-04-01T17:19:52;102060.16;;;13.53;79.24
22333;BME280;11334;36.986;-121.936;2023-04-01T17:22:27;102069.25;;;13.59;78.42
22333;BME280;11334;36.986;-121.936;2023-04-01T17:30:35;102066.06;;;13.92;77.21
22333;BME280;11334;36.986;-121.936;2023-04-01T17:38:13;102054.19;;;14.22;76.53
22333;BME280;11334;36.986;-121.936;2023-04-01T17:46:10;102047.75;;;14.42;74.47
22333;BME280;11334;36.986;-121.936;2023-04-01T17:48:49;102056.69;;;14.51;73.41
22333;BME280;11334;36.986;-121.936;2023-04-01T17:51:43;102059.59;;;14.57;73.01
22333;BME280;11334;36.986;-121.936;2023-04-01T18:00:13;102055.50;;;14.80;70.54
22333;BME280;11334;36.986;-121.936;2023-04-01T18:10:46;102068.72;;;15.16;68.78
22333;BME280;11334;36.986;-121.936;2023-04-01T18:19:14;102068.25;;;15.37;63.50
22333;BME280;11334;36.986;-121.936;2023-04-01T18:22:15;102063.34;;;15.50;62.41
22333;BME280;11334;36.986;-121.936;2023-04-01T18:27:23;102063.25;;;15.59;63.96
22333;BME280;11334;36.986;-121.936;2023-04-01T18:30:07;102072.78;;;15.62;64.55
22333;BME280;11334;36.986;-121.936;2023-04-01T18:33:01;102057.00;;;15.76;64.63
22333;BME280;11334;36.986;-121.936;2023-04-01T18:38:40;102053.59;;;15.91;63.86
22333;BME280;11334;36.986;-121.936;2023-04-01T18:41:19;102054.16;;;16.03;63.27
22333;BME280;11334;36.986;-121.936;2023-04-01T19:05:34;102022.38;;;17.05;61.87
22333;BME280;11334;36.986;-121.936;2023-04-01T19:14:04;102009.28;;;17.41;58.85
22333;BME280;11334;36.986;-121.936;2023-04-01T19:20:06;102012.66;;;17.59;58.08
22333;BME280;11334;36.986;-121.936;2023-04-01T19:31:03;102000.81;;;17.84;54.86
22333;BME280;11334;36.986;-121.936;2023-04-01T19:36:31;101998.75;;;18.09;54.46
22333;BME280;11334;36.986;-121.936;2023-04-01T19:39:27;101973.91;;;18.15;54.44
22333;BME280;11334;36.986;-121.936;2023-04-01T19:41:59;101991.13;;;18.29;54.33
22333;BME280;11334;36.986;-121.936;2023-04-01T20:00:53;101970.53;;;19.18;52.69
22333;BME280;11334;36.986;-121.936;2023-04-01T20:03:41;101966.06;;;19.25;52.76
22333;BME280;11334;36.986;-121.936;2023-04-01T20:06:28;101964.63;;;19.36;52.56
22333;BME280;11334;36.986;-121.936;2023-04-01T20:12:05;101959.28;;;19.65;50.42
22333;BME280;11334;36.986;-121.936;2023-04-01T20:14:56;101958.16;;;19.74;46.00
22333;BME280;11334;36.986;-121.936;2023-04-01T20:25:49;101934.38;;;20.20;45.68
22333;BME280;11334;36.986;-121.936;2023-04-01T20:39:45;101925.41;;;20.69;42.94
22333;BME280;11334;36.986;-121.936;2023-04-01T20:45:10;101922.75;;;20.96;42.21
22333;BME280;11334;36.986;-121.936;2023-04-01T20:47:57;101926.59;;;21.08;43.53
22333;BME280;11334;36.986;-121.936;2023-04-01T20:50:28;101921.06;;;21.16;42.04
22333;BME280;11334;36.986;-121.936;2023-04-01T20:56:17;101912.66;;;21.31;40.70
22333;BME280;11334;36.986;-121.936;2023-04-01T21:09:55;101896.88;;;21.55;39.47
22333;BME280;11334;36.986;-121.936;2023-04-01T21:15:34;101893.81;;;21.65;41.35
22333;BME280;11334;36.986;-121.936;2023-04-01T21:23:54;101883.94;;;21.85;39.99
22333;BME280;11334;36.986;-121.936;2023-04-01T21:29:26;101876.53;;;21.99;40.73
22333;BME280;11334;36.986;-121.936;2023-04-01T21:37:49;101870.19;;;22.19;40.43
22333;BME280;11334;36.986;-121.936;2023-04-01T21:40:37;101865.63;;;22.33;38.93
22333;BME280;11334;36.986;-121.936;2023-04-01T21:46:18;101865.88;;;22.50;39.55
22333;BME280;11334;36.986;-121.936;2023-04-01T21:49:16;101864.63;;;22.47;40.72
22333;BME280;11334;36.986;-121.936;2023-04-01T21:55:18;101848.03;;;22.69;39.67
22333;BME280;11334;36.986;-121.936;2023-04-01T22:00:38;101851.34;;;23.03;39.89
22333;BME280;11334;36.986;-121.936;2023-04-01T22:03:46;101842.81;;;23.12;38.67
22333;BME280;11334;36.986;-121.936;2023-04-01T22:12:07;101840.25;;;23.55;37.67
22333;BME280;11334;36.986;-121.936;2023-04-01T22:14:52;101828.47;;;23.74;38.38
22333;BME280;11334;36.986;-121.936;2023-04-01T22:17:32;101833.97;;;24.05;37.11
22333;BME280;11334;36.986;-121.936;2023-04-01T22:23:11;101807.09;;;24.03;36.68
22333;BME280;11334;36.986;-121.936;2023-04-01T22:25:45;101813.59;;;24.33;37.15
22333;BME280;11334;36.986;-121.936;2023-04-01T22:28:32;101811.94;;;24.32;36.89
22333;BME280;11334;36.986;-121.936;2023-04-01T22:31:03;101809.91;;;24.21;37.93
22333;BME280;11334;36.986;-121.936;2023-04-01T22:36:26;101790.91;;;23.90;37.03
22333;BME280;11334;36.986;-121.936;2023-04-01T22:42:07;101806.22;;;23.72;36.72
22333;BME280;11334;36.986;-121.936;2023-04-01T22:47:40;101799.53;;;23.12;38.25
22333;BME280;11334;36.986;-121.936;2023-04-01T22:55:50;101792.91;;;22.50;39.41
22333;BME280;11334;36.986;-121.936;2023-04-01T22:58:25;101796.47;;;22.51;39.61
22333;BME280;11334;36.986;-121.936;2023-04-01T23:01:00;101780.06;;;22.46;38.44
22333;BME280;11334;36.986;-121.936;2023-04-01T23:03:32;101780.66;;;22.35;38.91
22333;BME280;11334;36.986;-121.936;2023-04-01T23:06:03;101782.72;;;22.33;38.58
22333;BME280;11334;36.986;-121.936;2023-04-01T23:08:52;101775.88;;;22.12;37.53